sensor_id;sensor_type;location;lat;lon;timestamp;P1;durP1;ratioP1;P2;durP2;ratioP2
28605;SDS011;46498;49.968;7.754;2024-02-14T00:00:03;7.53;;;2.70;;
28605;SDS011;46498;49.968;7.754;2024-02-14T00:05:05;5.93;;;2.10;;
28605;SDS011;46498;49.968;7.754;2024-02-14T00:10:07;9.90;;;2.50;;
28605;SDS011;46498;49.968;7.754;2024-02-14T00:15:09;8.90;;;2.45;;
28605;SDS011;46498;49.968;7.754;2024-02-14T00:20:10;7.28;;;2.40;;
28605;SDS011;46498;49.968;7.754;2024-02-14T00:25:13;8.40;;;2.30;;
28605;SDS011;46498;49.968;7.754;2024-02-14T00:30:16;7.85;;;2.30;;
28605;SDS011;46498;49.968;7.754;2024-02-14T00:35:18;11.43;;;3.12;;
28605;SDS011;46498;49.968;7.754;2024-02-14T00:40:18;5.62;;;2.40;;
28605;SDS011;46498;49.968;7.754;2024-02-14T00:45:19;10.65;;;2.28;;
28605;SDS011;46498;49.968;7.754;2024-02-14T00:50:20;8.52;;;2.08;;
28605;SDS011;46498;49.968;7.754;2024-02-14T00:55:21;8.55;;;2.70;;
28605;SDS011;46498;49.968;7.754;2024-02-14T01:00:22;6.05;;;2.85;;
28605;SDS011;46498;49.968;7.754;2024-02-14T01:05:23;7.40;;;2.53;;
28605;SDS011;46498;49.968;7.754;2024-02-14T01:10:25;9.02;;;3.72;;
28605;SDS011;46498;49.968;7.754;2024-02-14T01:15:26;7.05;;;1.85;;
28605;SDS011;46498;49.968;7.754;2024-02-14T01:20:26;7.90;;;2.47;;
28605;SDS011;46498;49.968;7.754;2024-02-14T01:25:28;17.37;;;2.55;;
28605;SDS011;46498;49.968;7.754;2024-02-14T01:30:28;5.70;;;2.72;;
28605;SDS011;46498;49.968;7.754;2024-02-14T01:35:30;6.45;;;2.37;;
28605;SDS011;46498;49.968;7.754;2024-02-14T01:40:31;4.32;;;1.95;;
28605;SDS011;46498;49.968;7.754;2024-02-14T01:45:32;3.37;;;1.70;;
28605;SDS011;46498;49.968;7.754;2024-02-14T01:50:33;11.88;;;2.78;;
28605;SDS011;46498;49.968;7.754;2024-02-14T01:55:35;10.68;;;2.65;;
28605;SDS011;46498;49.968;7.754;2024-02-14T02:00:36;6.10;;;2.05;;
28605;SDS011;46498;49.968;7.754;2024-02-14T02:05:39;8.43;;;3.63;;
28605;SDS011;46498;49.968;7.754;2024-02-14T02:10:40;12.30;;;2.47;;
28605;SDS011;46498;49.968;7.754;2024-02-14T02:15:41;8.77;;;2.30;;
28605;SDS011;46498;49.968;7.754;2024-02-14T02:20:45;5.57;;;2.03;;
28605;SDS011;46498;49.968;7.754;2024-02-14T02:25:47;7.65;;;2.33;;
28605;SDS011;46498;49.968;7.754;2024-02-14T02:30:48;8.75;;;2.12;;
28605;SDS011;46498;49.968;7.754;2024-02-14T02:35:49;8.73;;;2.03;;
28605;SDS011;46498;49.968;7.754;2024-02-14T02:40:50;8.25;;;1.87;;
28605;SDS011;46498;49.968;7.754;2024-02-14T02:45:51;8.23;;;2.00;;
28605;SDS011;46498;49.968;7.754;2024-02-14T02:50:52;9.25;;;2.62;;
28605;SDS011;46498;49.968;7.754;2024-02-14T02:55:53;5.35;;;1.60;;
28605;SDS011;46498;49.968;7.754;2024-02-14T03:00:54;9.85;;;2.72;;
28605;SDS011;46498;49.968;7.754;2024-02-14T03:05:57;7.55;;;2.15;;
28605;SDS011;46498;49.968;7.754;2024-02-14T03:11:06;5.77;;;1.83;;
28605;SDS011;46498;49.968;7.754;2024-02-14T03:16:07;5.75;;;2.42;;
28605;SDS011;46498;49.968;7.754;2024-02-14T03:21:08;9.90;;;2.72;;
28605;SDS011;46498;49.968;7.754;2024-02-14T03:26:09;8.73;;;2.25;;
28605;SDS011;46498;49.968;7.754;2024-02-14T03:31:11;5.60;;;2.30;;
28605;SDS011;46498;49.968;7.754;2024-02-14T03:36:15;9.75;;;2.30;;
28605;SDS011;46498;49.968;7.754;2024-02-14T03:41:15;6.87;;;1.92;;
28605;SDS011;46498;49.968;7.754;2024-02-14T03:46:16;6.43;;;2.10;;
28605;SDS011;46498;49.968;7.754;2024-02-14T03:51:18;7.65;;;2.55;;
28605;SDS011;46498;49.968;7.754;2024-02-14T03:56:20;8.50;;;2.63;;
28605;SDS011;46498;49.968;7.754;2024-02-14T04:01:21;10.85;;;3.03;;
28605;SDS011;46498;49.968;7.754;2024-02-14T04:06:22;7.28;;;2.30;;
28605;SDS011;46498;49.968;7.754;2024-02-14T04:11:23;13.25;;;3.17;;
28605;SDS011;46498;49.968;7.754;2024-02-14T04:16:24;13.52;;;2.40;;
28605;SDS011;46498;49.968;7.754;2024-02-14T04:21:24;8.55;;;2.55;;
28605;SDS011;46498;49.968;7.754;2024-02-14T04:26:26;10.60;;;2.47;;
28605;SDS011;46498;49.968;7.754;2024-02-14T04:31:27;9.98;;;2.55;;
28605;SDS011;46498;49.968;7.754;2024-02-14T04:36:30;17.50;;;2.50;;
28605;SDS011;46498;49.968;7.754;2024-02-14T04:41:31;9.50;;;2.42;;
28605;SDS011;46498;49.968;7.754;2024-02-14T04:46:32;8.77;;;2.65;;
28605;SDS011;46498;49.968;7.754;2024-02-14T04:51:35;7.68;;;2.15;;
28605;SDS011;46498;49.968;7.754;2024-02-14T04:56:36;10.00;;;2.33;;
28605;SDS011;46498;49.968;7.754;2024-02-14T05:01:37;13.45;;;3.70;;
28605;SDS011;46498;49.968;7.754;2024-02-14T05:06:38;9.27;;;2.53;;
28605;SDS011;46498;49.968;7.754;2024-02-14T05:11:40;8.95;;;2.83;;
28605;SDS011;46498;49.968;7.754;2024-02-14T05:16:41;11.27;;;3.65;;
28605;SDS011;46498;49.968;7.754;2024-02-14T05:21:41;8.93;;;2.75;;
28605;SDS011;46498;49.968;7.754;2024-02-14T05:26:43;11.05;;;3.40;;
28605;SDS011;46498;49.968;7.754;2024-02-14T05:31:44;10.25;;;3.17;;
28605;SDS011;46498;49.968;7.754;2024-02-14T05:36:46;6.53;;;2.10;;
28605;SDS011;46498;49.968;7.754;2024-02-14T05:41:47;5.05;;;2.22;;
28605;SDS011;46498;49.968;7.754;2024-02-14T05:46:49;7.33;;;2.20;;
28605;SDS011;46498;49.968;7.754;2024-02-14T05:51:50;5.07;;;1.83;;
28605;SDS011;46498;49.968;7.754;2024-02-14T06:01:54;5.85;;;2.40;;
28605;SDS011;46498;49.968;7.754;2024-02-14T06:06:55;6.47;;;2.25;;
28605;SDS011;46498;49.968;7.754;2024-02-14T06:11:55;5.97;;;1.90;;
28605;SDS011;46498;49.968;7.754;2024-02-14T06:16:56;6.18;;;2.30;;
28605;SDS011;46498;49.968;7.754;2024-02-14T06:21:57;5.68;;;2.10;;
28605;SDS011;46498;49.968;7.754;2024-02-14T06:26:59;4.82;;;1.87;;
28605;SDS011;46498;49.968;7.754;2024-02-14T06:32:00;4.82;;;2.08;;
28605;SDS011;46498;49.968;7.754;2024-02-14T06:37:02;3.00;;;2.10;;
28605;SDS011;46498;49.968;7.754;2024-02-14T06:42:03;3.53;;;1.95;;
28605;SDS011;46498;49.968;7.754;2024-02-14T06:47:04;5.97;;;2.00;;
28605;SDS011;46498;49.968;7.754;2024-02-14T06:52:05;7.87;;;2.60;;
28605;SDS011;46498;49.968;7.754;2024-02-14T06:57:06;5.70;;;2.80;;
28605;SDS011;46498;49.968;7.754;2024-02-14T07:02:08;6.70;;;3.15;;
28605;SDS011;46498;49.968;7.754;2024-02-14T07:07:14;3.65;;;2.25;;
28605;SDS011;46498;49.968;7.754;2024-02-14T07:12:16;4.25;;;2.30;;
28605;SDS011;46498;49.968;7.754;2024-02-14T07:17:17;3.03;;;1.77;;
28605;SDS011;46498;49.968;7.754;2024-02-14T07:22:18;3.37;;;1.75;;
28605;SDS011;46498;49.968;7.754;2024-02-14T07:27:22;6.68;;;2.50;;
28605;SDS011;46498;49.968;7.754;2024-02-14T07:32:24;5.40;;;2.40;;
28605;SDS011;46498;49.968;7.754;2024-02-14T07:37:25;4.50;;;2.10;;
28605;SDS011;46498;49.968;7.754;2024-02-14T07:42:26;3.92;;;2.10;;
28605;SDS011;46498;49.968;7.754;2024-02-14T07:47:27;3.87;;;1.70;;
28605;SDS011;46498;49.968;7.754;2024-02-14T07:52:29;4.68;;;2.20;;
28605;SDS011;46498;49.968;7.754;2024-02-14T07:57:30;6.05;;;1.92;;
28605;SDS011;46498;49.968;7.754;2024-02-14T08:02:30;5.87;;;2.03;;
28605;SDS011;46498;49.968;7.754;2024-02-14T08:07:31;3.03;;;1.92;;
28605;SDS011;46498;49.968;7.754;2024-02-14T08:12:32;5.70;;;1.58;;
28605;SDS011;46498;49.968;7.754;2024-02-14T08:17:33;3.62;;;1.90;;
28605;SDS011;46498;49.968;7.754;2024-02-14T08:22:36;3.87;;;1.60;;
28605;SDS011;46498;49.968;7.754;2024-02-14T08:27:37;4.97;;;2.05;;
28605;SDS011;46498;49.968;7.754;2024-02-14T08:32:38;5.65;;;2.62;;
28605;SDS011;46498;49.968;7.754;2024-02-14T08:37:39;3.75;;;2.17;;
28605;SDS011;46498;49.968;7.754;2024-02-14T08:42:41;5.43;;;2.20;;
28605;SDS011;46498;49.968;7.754;2024-02-14T08:47:44;4.20;;;2.33;;
28605;SDS011;46498;49.968;7.754;2024-02-14T08:52:45;5.95;;;2.30;;
28605;SDS011;46498;49.968;7.754;2024-02-14T08:57:46;4.28;;;2.50;;
28605;SDS011;46498;49.968;7.754;2024-02-14T09:02:51;5.50;;;1.92;;
28605;SDS011;46498;49.968;7.754;2024-02-14T09:07:53;4.50;;;2.37;;
28605;SDS011;46498;49.968;7.754;2024-02-14T09:12:54;2.40;;;1.70;;
28605;SDS011;46498;49.968;7.754;2024-02-14T09:17:55;2.50;;;1.87;;
28605;SDS011;46498;49.968;7.754;2024-02-14T09:22:57;3.20;;;2.30;;
28605;SDS011;46498;49.968;7.754;2024-02-14T09:27:59;2.95;;;1.90;;
28605;SDS011;46498;49.968;7.754;2024-02-14T09:33:00;2.25;;;1.55;;
28605;SDS011;46498;49.968;7.754;2024-02-14T09:38:01;2.12;;;1.48;;
28605;SDS011;46498;49.968;7.754;2024-02-14T09:43:03;2.50;;;1.20;;
28605;SDS011;46498;49.968;7.754;2024-02-14T09:48:07;2.33;;;1.20;;
28605;SDS011;46498;49.968;7.754;2024-02-14T09:53:10;2.12;;;1.40;;
28605;SDS011;46498;49.968;7.754;2024-02-14T09:58:13;2.67;;;1.65;;
28605;SDS011;46498;49.968;7.754;2024-02-14T10:03:16;1.67;;;1.23;;
28605;SDS011;46498;49.968;7.754;2024-02-14T10:08:18;4.23;;;1.67;;
28605;SDS011;46498;49.968;7.754;2024-02-14T10:13:19;2.20;;;1.40;;
28605;SDS011;46498;49.968;7.754;2024-02-14T10:18:20;2.72;;;1.65;;
28605;SDS011;46498;49.968;7.754;2024-02-14T10:23:23;3.20;;;1.20;;
28605;SDS011;46498;49.968;7.754;2024-02-14T10:28:24;2.58;;;0.93;;
28605;SDS011;46498;49.968;7.754;2024-02-14T10:33:34;1.95;;;1.30;;
28605;SDS011;46498;49.968;7.754;2024-02-14T10:38:35;1.92;;;0.93;;
28605;SDS011;46498;49.968;7.754;2024-02-14T10:43:40;3.30;;;1.77;;
28605;SDS011;46498;49.968;7.754;2024-02-14T10:53:44;3.20;;;0.70;;
28605;SDS011;46498;49.968;7.754;2024-02-14T10:58:46;2.75;;;0.62;;
28605;SDS011;46498;49.968;7.754;2024-02-14T11:03:48;1.17;;;0.50;;
28605;SDS011;46498;49.968;7.754;2024-02-14T11:08:57;4.87;;;1.00;;
28605;SDS011;46498;49.968;7.754;2024-02-14T11:14:02;2.95;;;1.10;;
28605;SDS011;46498;49.968;7.754;2024-02-14T11:19:11;5.40;;;0.70;;
28605;SDS011;46498;49.968;7.754;2024-02-14T11:24:14;3.65;;;1.35;;
28605;SDS011;46498;49.968;7.754;2024-02-14T11:29:16;3.37;;;1.83;;
28605;SDS011;46498;49.968;7.754;2024-02-14T11:34:23;2.72;;;1.10;;
28605;SDS011;46498;49.968;7.754;2024-02-14T11:39:25;4.18;;;1.00;;
28605;SDS011;46498;49.968;7.754;2024-02-14T11:44:26;3.37;;;0.70;;
28605;SDS011;46498;49.968;7.754;2024-02-14T11:49:27;1.98;;;0.80;;
28605;SDS011;46498;49.968;7.754;2024-02-14T11:54:28;2.00;;;1.10;;
28605;SDS011;46498;49.968;7.754;2024-02-14T11:59:29;2.70;;;1.20;;
28605;SDS011;46498;49.968;7.754;2024-02-14T12:04:29;2.53;;;1.35;;
28605;SDS011;46498;49.968;7.754;2024-02-14T12:09:32;1.80;;;1.10;;
28605;SDS011;46498;49.968;7.754;2024-02-14T12:14:33;2.20;;;1.37;;
28605;SDS011;46498;49.968;7.754;2024-02-14T12:19:35;2.53;;;1.27;;
28605;SDS011;46498;49.968;7.754;2024-02-14T12:24:38;2.90;;;1.27;;
28605;SDS011;46498;49.968;7.754;2024-02-14T12:29:39;2.25;;;1.40;;
28605;SDS011;46498;49.968;7.754;2024-02-14T12:34:40;2.85;;;1.08;;
28605;SDS011;46498;49.968;7.754;2024-02-14T12:39:41;3.00;;;1.50;;
28605;SDS011;46498;49.968;7.754;2024-02-14T12:44:42;2.37;;;1.40;;
28605;SDS011;46498;49.968;7.754;2024-02-14T12:49:46;2.22;;;1.52;;
28605;SDS011;46498;49.968;7.754;2024-02-14T12:54:48;2.35;;;1.23;;
28605;SDS011;46498;49.968;7.754;2024-02-14T12:59:49;1.90;;;1.40;;
28605;SDS011;46498;49.968;7.754;2024-02-14T13:04:50;2.10;;;1.30;;
28605;SDS011;46498;49.968;7.754;2024-02-14T13:09:51;3.35;;;1.40;;
28605;SDS011;46498;49.968;7.754;2024-02-14T13:14:52;3.12;;;1.85;;
28605;SDS011;46498;49.968;7.754;2024-02-14T13:19:53;3.60;;;1.80;;
28605;SDS011;46498;49.968;7.754;2024-02-14T13:24:54;2.45;;;1.90;;
28605;SDS011;46498;49.968;7.754;2024-02-14T13:29:56;1.95;;;1.48;;
28605;SDS011;46498;49.968;7.754;2024-02-14T13:34:57;4.60;;;3.03;;
28605;SDS011;46498;49.968;7.754;2024-02-14T13:39:59;2.85;;;1.85;;
28605;SDS011;46498;49.968;7.754;2024-02-14T13:45:00;2.35;;;1.70;;
28605;SDS011;46498;49.968;7.754;2024-02-14T13:50:01;2.30;;;1.83;;
28605;SDS011;46498;49.968;7.754;2024-02-14T13:55:04;5.85;;;3.20;;
28605;SDS011;46498;49.968;7.754;2024-02-14T14:00:08;4.68;;;2.55;;
28605;SDS011;46498;49.968;7.754;2024-02-14T14:05:13;4.65;;;2.90;;
28605;SDS011;46498;49.968;7.754;2024-02-14T14:10:18;4.07;;;2.95;;
28605;SDS011;46498;49.968;7.754;2024-02-14T14:15:19;3.65;;;2.40;;
28605;SDS011;46498;49.968;7.754;2024-02-14T14:20:20;7.12;;;3.30;;
28605;SDS011;46498;49.968;7.754;2024-02-14T14:25:22;3.97;;;3.20;;
28605;SDS011;46498;49.968;7.754;2024-02-14T14:30:23;4.12;;;2.28;;
28605;SDS011;46498;49.968;7.754;2024-02-14T14:35:24;2.97;;;2.30;;
28605;SDS011;46498;49.968;7.754;2024-02-14T14:40:25;4.53;;;2.20;;
28605;SDS011;46498;49.968;7.754;2024-02-14T14:45:27;3.95;;;2.62;;
28605;SDS011;46498;49.968;7.754;2024-02-14T14:50:28;3.60;;;2.65;;
28605;SDS011;46498;49.968;7.754;2024-02-14T14:55:51;6.37;;;2.83;;
28605;SDS011;46498;49.968;7.754;2024-02-14T15:00:56;3.97;;;2.80;;
28605;SDS011;46498;49.968;7.754;2024-02-14T15:05:59;6.12;;;3.65;;
28605;SDS011;46498;49.968;7.754;2024-02-14T15:11:01;3.90;;;3.28;;
28605;SDS011;46498;49.968;7.754;2024-02-14T15:16:03;4.25;;;3.40;;
28605;SDS011;46498;49.968;7.754;2024-02-14T15:21:07;5.07;;;3.58;;
28605;SDS011;46498;49.968;7.754;2024-02-14T15:26:08;3.15;;;2.70;;
28605;SDS011;46498;49.968;7.754;2024-02-14T15:31:12;3.65;;;2.40;;
28605;SDS011;46498;49.968;7.754;2024-02-14T15:36:32;3.03;;;2.53;;
28605;SDS011;46498;49.968;7.754;2024-02-14T15:41:32;3.33;;;2.58;;
28605;SDS011;46498;49.968;7.754;2024-02-14T15:46:33;3.75;;;2.87;;
28605;SDS011;46498;49.968;7.754;2024-02-14T15:51:34;3.17;;;2.33;;
28605;SDS011;46498;49.968;7.754;2024-02-14T15:56:35;3.03;;;2.37;;
28605;SDS011;46498;49.968;7.754;2024-02-14T16:01:36;3.25;;;2.35;;
28605;SDS011;46498;49.968;7.754;2024-02-14T16:06:38;5.83;;;3.30;;
28605;SDS011;46498;49.968;7.754;2024-02-14T16:11:40;5.80;;;2.50;;
28605;SDS011;46498;49.968;7.754;2024-02-14T16:16:41;2.90;;;2.28;;
28605;SDS011;46498;49.968;7.754;2024-02-14T16:21:42;3.20;;;1.80;;
28605;SDS011;46498;49.968;7.754;2024-02-14T16:26:43;2.50;;;1.65;;
28605;SDS011;46498;49.968;7.754;2024-02-14T16:31:44;4.68;;;2.95;;
28605;SDS011;46498;49.968;7.754;2024-02-14T16:36:48;2.53;;;1.62;;
28605;SDS011;46498;49.968;7.754;2024-02-14T16:41:49;2.97;;;1.83;;
28605;SDS011;46498;49.968;7.754;2024-02-14T16:46:50;3.33;;;1.95;;
28605;SDS011;46498;49.968;7.754;2024-02-14T16:51:51;3.87;;;2.00;;
28605;SDS011;46498;49.968;7.754;2024-02-14T16:56:52;3.80;;;2.08;;
28605;SDS011;46498;49.968;7.754;2024-02-14T17:06:56;3.95;;;2.50;;
28605;SDS011;46498;49.968;7.754;2024-02-14T17:11:58;2.35;;;1.70;;
28605;SDS011;46498;49.968;7.754;2024-02-14T17:16:58;5.90;;;2.87;;
28605;SDS011;46498;49.968;7.754;2024-02-14T17:22:00;2.70;;;2.25;;
28605;SDS011;46498;49.968;7.754;2024-02-14T17:27:01;3.87;;;2.85;;
28605;SDS011;46498;49.968;7.754;2024-02-14T17:32:03;4.50;;;3.25;;
28605;SDS011;46498;49.968;7.754;2024-02-14T17:37:04;1.83;;;1.50;;
28605;SDS011;46498;49.968;7.754;2024-02-14T17:42:05;2.78;;;2.20;;
28605;SDS011;46498;49.968;7.754;2024-02-14T17:47:06;3.10;;;2.30;;
28605;SDS011;46498;49.968;7.754;2024-02-14T17:52:07;1.95;;;1.70;;
28605;SDS011;46498;49.968;7.754;2024-02-14T17:57:08;1.83;;;1.35;;
28605;SDS011;46498;49.968;7.754;2024-02-14T18:02:10;2.37;;;1.80;;
28605;SDS011;46498;49.968;7.754;2024-02-14T18:07:11;1.77;;;1.60;;
28605;SDS011;46498;49.968;7.754;2024-02-14T18:12:12;2.10;;;1.58;;
28605;SDS011;46498;49.968;7.754;2024-02-14T18:17:14;2.15;;;1.58;;
28605;SDS011;46498;49.968;7.754;2024-02-14T18:22:14;2.33;;;1.75;;
28605;SDS011;46498;49.968;7.754;2024-02-14T18:27:15;2.67;;;1.98;;
28605;SDS011;46498;49.968;7.754;2024-02-14T18:32:17;1.92;;;1.35;;
28605;SDS011;46498;49.968;7.754;2024-02-14T18:37:18;4.82;;;3.17;;
28605;SDS011;46498;49.968;7.754;2024-02-14T18:42:20;3.08;;;2.10;;
28605;SDS011;46498;49.968;7.754;2024-02-14T18:47:21;2.60;;;1.70;;
28605;SDS011;46498;49.968;7.754;2024-02-14T18:52:22;2.12;;;1.70;;
28605;SDS011;46498;49.968;7.754;2024-02-14T18:57:23;3.00;;;2.10;;
28605;SDS011;46498;49.968;7.754;2024-02-14T19:02:24;3.30;;;2.40;;
28605;SDS011;46498;49.968;7.754;2024-02-14T19:07:25;3.55;;;2.40;;
28605;SDS011;46498;49.968;7.754;2024-02-14T19:12:26;3.50;;;2.70;;
28605;SDS011;46498;49.968;7.754;2024-02-14T19:17:27;2.58;;;2.10;;
28605;SDS011;46498;49.968;7.754;2024-02-14T19:22:29;5.47;;;2.80;;
28605;SDS011;46498;49.968;7.754;2024-02-14T19:27:31;4.20;;;2.40;;
28605;SDS011;46498;49.968;7.754;2024-02-14T19:32:32;5.20;;;3.25;;
28605;SDS011;46498;49.968;7.754;2024-02-14T19:37:38;2.78;;;2.20;;
28605;SDS011;46498;49.968;7.754;2024-02-14T19:42:39;3.62;;;2.25;;
28605;SDS011;46498;49.968;7.754;2024-02-14T19:47:41;4.30;;;2.10;;
28605;SDS011;46498;49.968;7.754;2024-02-14T19:52:42;2.75;;;1.60;;
28605;SDS011;46498;49.968;7.754;2024-02-14T19:57:43;2.80;;;1.60;;
28605;SDS011;46498;49.968;7.754;2024-02-14T20:02:44;3.47;;;1.80;;
28605;SDS011;46498;49.968;7.754;2024-02-14T20:07:45;6.10;;;3.40;;
28605;SDS011;46498;49.968;7.754;2024-02-14T20:12:46;6.55;;;3.20;;
28605;SDS011;46498;49.968;7.754;2024-02-14T20:17:47;5.22;;;2.83;;
28605;SDS011;46498;49.968;7.754;2024-02-14T20:22:49;3.13;;;2.30;;
28605;SDS011;46498;49.968;7.754;2024-02-14T20:27:51;4.28;;;2.35;;
28605;SDS011;46498;49.968;7.754;2024-02-14T20:32:52;3.15;;;1.75;;
28605;SDS011;46498;49.968;7.754;2024-02-14T20:37:53;5.10;;;2.53;;
28605;SDS011;46498;49.968;7.754;2024-02-14T20:42:54;6.72;;;3.25;;
28605;SDS011;46498;49.968;7.754;2024-02-14T20:47:56;7.75;;;3.80;;
28605;SDS011;46498;49.968;7.754;2024-02-14T20:52:58;5.68;;;3.10;;
28605;SDS011;46498;49.968;7.754;2024-02-14T20:57:59;4.45;;;2.72;;
28605;SDS011;46498;49.968;7.754;2024-02-14T21:03:01;3.28;;;2.10;;
28605;SDS011;46498;49.968;7.754;2024-02-14T21:08:02;4.10;;;1.87;;
28605;SDS011;46498;49.968;7.754;2024-02-14T21:13:03;4.18;;;1.95;;
28605;SDS011;46498;49.968;7.754;2024-02-14T21:18:04;2.70;;;1.73;;
28605;SDS011;46498;49.968;7.754;2024-02-14T21:23:06;4.05;;;2.20;;
28605;SDS011;46498;49.968;7.754;2024-02-14T21:28:07;5.25;;;2.95;;
28605;SDS011;46498;49.968;7.754;2024-02-14T21:33:08;4.10;;;2.17;;
28605;SDS011;46498;49.968;7.754;2024-02-14T21:38:09;5.10;;;2.53;;
28605;SDS011;46498;49.968;7.754;2024-02-14T21:43:10;6.28;;;3.08;;
28605;SDS011;46498;49.968;7.754;2024-02-14T21:48:13;4.62;;;2.25;;
28605;SDS011;46498;49.968;7.754;2024-02-14T21:53:17;6.75;;;3.47;;
28605;SDS011;46498;49.968;7.754;2024-02-14T21:58:18;5.75;;;3.12;;
28605;SDS011;46498;49.968;7.754;2024-02-14T22:03:19;8.10;;;3.08;;
28605;SDS011;46498;49.968;7.754;2024-02-14T22:08:21;5.15;;;1.90;;
28605;SDS011;46498;49.968;7.754;2024-02-14T22:18:25;12.77;;;7.40;;
28605;SDS011;46498;49.968;7.754;2024-02-14T22:23:26;5.97;;;2.83;;
28605;SDS011;46498;49.968;7.754;2024-02-14T22:28:27;5.20;;;2.65;;
28605;SDS011;46498;49.968;7.754;2024-02-14T22:33:34;6.05;;;2.20;;
28605;SDS011;46498;49.968;7.754;2024-02-14T22:38:36;5.32;;;2.47;;
28605;SDS011;46498;49.968;7.754;2024-02-14T22:43:37;4.70;;;2.17;;
28605;SDS011;46498;49.968;7.754;2024-02-14T22:48:38;4.57;;;2.35;;
28605;SDS011;46498;49.968;7.754;2024-02-14T22:53:39;4.85;;;2.17;;
28605;SDS011;46498;49.968;7.754;2024-02-14T22:58:40;3.53;;;2.30;;
28605;SDS011;46498;49.968;7.754;2024-02-14T23:03:41;6.60;;;2.58;;
28605;SDS011;46498;49.968;7.754;2024-02-14T23:08:42;6.62;;;2.78;;
28605;SDS011;46498;49.968;7.754;2024-02-14T23:13:44;9.32;;;2.78;;
28605;SDS011;46498;49.968;7.754;2024-02-14T23:18:45;7.30;;;2.90;;
28605;SDS011;46498;49.968;7.754;2024-02-14T23:23:47;5.87;;;2.70;;
28605;SDS011;46498;49.968;7.754;2024-02-14T23:28:48;4.75;;;2.90;;
28605;SDS011;46498;49.968;7.754;2024-02-14T23:33:49;4.00;;;2.62;;
28605;SDS011;46498;49.968;7.754;2024-02-14T23:38:50;5.22;;;2.47;;
28605;SDS011;46498;49.968;7.754;2024-02-14T23:43:52;7.32;;;2.83;;
28605;SDS011;46498;49.968;7.754;2024-02-14T23:48:53;11.00;;;4.18;;
28605;SDS011;46498;49.968;7.754;2024-02-14T23:53:54;7.87;;;3.53;;
28605;SDS011;46498;49.968;7.754;2024-02-14T23:58:55;5.53;;;3.33;;
